createdAt,value
2023-03-04T00:00:10.595Z,-0.52
2023-03-04T00:02:43.676Z,-0.47
2023-03-04T00:05:16.957Z,-0.51
2023-03-04T00:07:49.532Z,-0.49
2023-03-04T00:10:23.220Z,-0.54
2023-03-04T00:12:55.869Z,-0.58
2023-03-04T00:15:28.987Z,-0.57
2023-03-04T00:18:01.609Z,-0.61
2023-03-04T00:20:34.395Z,-0.60
2023-03-04T00:23:07.161Z,-0.59
2023-03-04T00:25:41.450Z,-0.58
2023-03-04T00:28:15.201Z,-0.55
2023-03-04T00:30:47.997Z,-0.57
2023-03-04T00:33:20.457Z,-0.60
2023-03-04T00:35:54.470Z,-0.63
2023-03-04T00:38:29.482Z,-0.70
2023-03-04T00:41:02.490Z,-0.69
2023-03-04T00:43:35.160Z,-0.66
2023-03-04T00:46:08.232Z,-0.63
2023-03-04T00:48:41.268Z,-0.67
2023-03-04T00:51:14.264Z,-0.66
2023-03-04T00:53:47.798Z,-0.61
2023-03-04T00:56:21.061Z,-0.65
2023-03-04T00:58:53.644Z,-0.64
2023-03-04T01:01:26.554Z,-0.67
2023-03-04T01:03:59.202Z,-0.63
2023-03-04T01:06:32.676Z,-0.65
2023-03-04T01:09:05.630Z,-0.64
2023-03-04T01:11:38.720Z,-0.64
2023-03-04T01:14:11.331Z,-0.66
2023-03-04T01:16:44.245Z,-0.62
2023-03-04T01:19:17.189Z,-0.60
2023-03-04T01:21:55.289Z,-0.62
2023-03-04T01:24:27.829Z,-0.62
2023-03-04T01:27:04.664Z,-0.61
2023-03-04T01:29:37.544Z,-0.55
2023-03-04T01:32:10.526Z,-0.55
2023-03-04T01:34:43.906Z,-0.55
2023-03-04T01:37:17.207Z,-0.51
2023-03-04T01:39:52.945Z,-0.51
2023-03-04T01:42:28.507Z,-0.53
2023-03-04T01:45:01.057Z,-0.47
2023-03-04T01:47:37.079Z,-0.46
2023-03-04T01:50:19.641Z,-0.46
2023-03-04T01:52:52.510Z,-0.43
2023-03-04T01:55:27.050Z,-0.41
2023-03-04T01:58:00.812Z,-0.42
2023-03-04T02:00:35.501Z,-0.43
2023-03-04T02:03:11.988Z,-0.44
2023-03-04T02:05:48.880Z,-0.41
2023-03-04T02:08:24.613Z,-0.40
2023-03-04T02:10:57.674Z,-0.39
2023-03-04T02:13:30.420Z,-0.38
2023-03-04T02:16:03.076Z,-0.41
2023-03-04T02:18:36.260Z,-0.43
2023-03-04T02:21:16.143Z,-0.40
2023-03-04T02:23:55.853Z,-0.41
2023-03-04T02:26:31.009Z,-0.44
2023-03-04T02:29:06.231Z,-0.44
2023-03-04T02:31:41.830Z,-0.42
2023-03-04T02:34:18.091Z,-0.45
2023-03-04T02:36:52.756Z,-0.47
2023-03-04T02:39:33.379Z,-0.44
2023-03-04T02:42:06.620Z,-0.44
2023-03-04T02:44:42.845Z,-0.44
2023-03-04T02:47:18.251Z,-0.44
2023-03-04T02:49:51.633Z,-0.39
2023-03-04T02:52:28.421Z,-0.41
2023-03-04T02:55:03.921Z,-0.39
2023-03-04T02:57:36.961Z,-0.38
2023-03-04T03:00:12.775Z,-0.36
2023-03-04T03:02:46.309Z,-0.40
2023-03-04T03:05:19.992Z,-0.36
2023-03-04T03:07:50.791Z,-0.33
2023-03-04T03:10:24.722Z,-0.40
2023-03-04T03:12:57.281Z,-0.39
2023-03-04T03:15:30.467Z,-0.41
2023-03-04T03:18:03.115Z,-0.39
2023-03-04T03:20:36.152Z,-0.41
2023-03-04T03:23:10.362Z,-0.38
2023-03-04T03:25:42.981Z,-0.38
2023-03-04T03:28:15.368Z,-0.35
2023-03-04T03:30:48.067Z,-0.34
2023-03-04T03:33:21.074Z,-0.32
2023-03-04T03:35:54.057Z,-0.33
2023-03-04T03:38:28.399Z,-0.35
2023-03-04T03:41:01.208Z,-0.33
2023-03-04T03:43:33.833Z,-0.37
2023-03-04T03:46:08.398Z,-0.41
2023-03-04T03:48:40.767Z,-0.41
2023-03-04T03:51:13.448Z,-0.40
2023-03-04T03:53:46.509Z,-0.41
2023-03-04T03:56:19.129Z,-0.45
2023-03-04T03:58:51.633Z,-0.42
2023-03-04T04:01:24.892Z,-0.43
2023-03-04T04:03:58.377Z,-0.42
2023-03-04T04:06:31.370Z,-0.40
2023-03-04T04:09:03.903Z,-0.41
2023-03-04T04:11:36.551Z,-0.39
2023-03-04T04:14:09.060Z,-0.38
2023-03-04T04:16:41.916Z,-0.37
2023-03-04T04:19:19.994Z,-0.41
2023-03-04T04:21:52.971Z,-0.42
2023-03-04T04:24:25.561Z,-0.39
2023-03-04T04:26:59.570Z,-0.44
2023-03-04T04:29:32.102Z,-0.46
2023-03-04T04:32:05.267Z,-0.48
2023-03-04T04:34:38.367Z,-0.51
2023-03-04T04:37:11.207Z,-0.48
2023-03-04T04:39:43.962Z,-0.54
2023-03-04T04:42:16.615Z,-0.58
2023-03-04T04:44:49.168Z,-0.53
2023-03-04T04:47:21.836Z,-0.53
2023-03-04T04:49:54.545Z,-0.59
2023-03-04T04:52:27.574Z,-0.58
2023-03-04T04:55:00.098Z,-0.59
2023-03-04T04:57:32.853Z,-0.59
2023-03-04T05:00:06.222Z,-0.60
2023-03-04T05:02:38.903Z,-0.58
2023-03-04T05:05:12.607Z,-0.58
2023-03-04T05:07:43.842Z,-0.63
2023-03-04T05:10:16.545Z,-0.66
2023-03-04T05:12:50.318Z,-0.65
2023-03-04T05:15:20.970Z,-0.66
2023-03-04T05:17:55.212Z,-0.73
2023-03-04T05:20:28.931Z,-0.74
2023-03-04T05:23:00.068Z,-0.73
2023-03-04T05:25:32.551Z,-0.77
2023-03-04T05:28:06.452Z,-0.75
2023-03-04T05:30:39.635Z,-0.79
2023-03-04T05:33:14.820Z,-0.76
2023-03-04T05:35:49.020Z,-0.72
2023-03-04T05:38:23.175Z,-0.73
2023-03-04T05:41:00.689Z,-0.75
2023-03-04T05:43:36.088Z,-0.69
2023-03-04T05:46:09.066Z,-0.66
2023-03-04T05:48:41.809Z,-0.67
2023-03-04T05:51:17.190Z,-0.72
2023-03-04T05:53:50.296Z,-0.71
2023-03-04T05:56:23.612Z,-0.76
2023-03-04T05:58:58.511Z,-0.75
2023-03-04T06:01:31.683Z,-0.79
2023-03-04T06:04:04.718Z,-0.84
2023-03-04T06:06:37.572Z,-0.77
2023-03-04T06:09:10.271Z,-0.78
2023-03-04T06:11:43.012Z,-0.79
2023-03-04T06:14:15.817Z,-0.74
2023-03-04T06:16:48.521Z,-0.70
2023-03-04T06:19:21.301Z,-0.64
2023-03-04T06:21:54.257Z,-0.63
2023-03-04T06:24:28.798Z,-0.54
2023-03-04T06:27:02.025Z,-0.51
2023-03-04T06:29:34.937Z,-0.61
2023-03-04T06:32:08.900Z,-0.54
2023-03-04T06:34:41.725Z,-0.51
2023-03-04T06:37:15.018Z,-0.43
2023-03-04T06:39:48.488Z,-0.43
2023-03-04T06:42:21.068Z,-0.42
2023-03-04T06:44:53.847Z,-0.43
2023-03-04T06:47:27.178Z,-0.44
2023-03-04T06:50:00.297Z,-0.46
2023-03-04T06:52:32.789Z,-0.43
2023-03-04T06:55:10.732Z,-0.42
2023-03-04T06:57:43.913Z,-0.37
2023-03-04T07:00:19.987Z,-0.38
2023-03-04T07:02:54.991Z,-0.36
2023-03-04T07:05:28.487Z,-0.35
2023-03-04T07:08:01.146Z,-0.31
2023-03-04T07:10:34.141Z,-0.31
2023-03-04T07:13:06.673Z,-0.31
2023-03-04T07:15:39.392Z,-0.25
2023-03-04T07:18:12.047Z,-0.24
2023-03-04T07:20:44.887Z,-0.22
2023-03-04T07:23:17.696Z,-0.18
2023-03-04T07:25:50.980Z,-0.16
2023-03-04T07:28:23.628Z,-0.18
2023-03-04T07:30:56.513Z,-0.16
2023-03-04T07:33:30.647Z,-0.14
2023-03-04T07:36:06.721Z,-0.14
2023-03-04T07:38:39.580Z,-0.13
2023-03-04T07:41:12.577Z,-0.11
2023-03-04T07:43:45.623Z,-0.10
2023-03-04T07:46:19.381Z,-0.12
2023-03-04T07:48:50.189Z,-0.11
2023-03-04T07:51:26.666Z,-0.15
2023-03-04T07:54:02.259Z,-0.13
2023-03-04T07:56:36.434Z,-0.14
2023-03-04T07:59:06.938Z,-0.13
2023-03-04T08:01:41.402Z,-0.15
2023-03-04T08:04:14.136Z,-0.12
2023-03-04T08:06:49.068Z,-0.10
2023-03-04T08:09:21.540Z,-0.13
2023-03-04T08:11:54.432Z,-0.14
2023-03-04T08:14:27.096Z,-0.12
2023-03-04T08:16:59.860Z,-0.09
2023-03-04T08:19:33.947Z,-0.09
2023-03-04T08:22:12.330Z,-0.06
2023-03-04T08:24:46.908Z,-0.07
2023-03-04T08:27:20.062Z,-0.10
2023-03-04T08:29:52.596Z,-0.09
2023-03-04T08:32:25.537Z,-0.05
2023-03-04T08:34:58.945Z,-0.07
2023-03-04T08:37:31.804Z,-0.05
2023-03-04T08:40:04.616Z,-0.02
2023-03-04T08:42:37.480Z,-0.01
2023-03-04T08:45:11.815Z,-0.00
2023-03-04T08:47:44.612Z,0.02
2023-03-04T08:50:21.371Z,0.03
2023-03-04T08:52:55.472Z,0.05
2023-03-04T08:55:28.168Z,0.06
2023-03-04T08:58:01.295Z,0.09
2023-03-04T09:00:34.058Z,0.11
2023-03-04T09:03:08.398Z,0.13
2023-03-04T09:05:40.993Z,0.14
2023-03-04T09:08:13.921Z,0.13
2023-03-04T09:10:47.105Z,0.16
2023-03-04T09:13:25.147Z,0.23
2023-03-04T09:15:59.045Z,0.24
2023-03-04T09:18:32.967Z,0.28
2023-03-04T09:21:03.937Z,0.29
2023-03-04T09:23:37.827Z,0.24
2023-03-04T09:26:24.467Z,0.24
2023-03-04T09:28:59.565Z,0.29
2023-03-04T09:31:35.137Z,0.34
2023-03-04T09:34:08.250Z,0.32
2023-03-04T09:36:40.953Z,0.34
2023-03-04T09:39:14.443Z,0.33
2023-03-04T09:41:48.930Z,0.36
2023-03-04T09:44:27.871Z,0.42
2023-03-04T09:47:04.917Z,0.46
2023-03-04T09:49:40.471Z,0.45
2023-03-04T09:52:25.934Z,0.43
2023-03-04T09:55:15.267Z,0.42
2023-03-04T09:57:58.485Z,0.44
2023-03-04T10:00:40.946Z,0.50
2023-03-04T10:03:23.263Z,0.41
2023-03-04T10:06:00.776Z,0.47
2023-03-04T10:08:47.223Z,0.50
2023-03-04T10:11:24.270Z,0.52
2023-03-04T10:14:06.634Z,0.47
2023-03-04T10:16:46.108Z,0.49
2023-03-04T10:19:31.467Z,0.53
2023-03-04T10:22:15.047Z,0.49
2023-03-04T10:24:48.805Z,0.49
2023-03-04T10:27:24.148Z,0.52
2023-03-04T10:29:56.721Z,0.51
2023-03-04T10:32:30.024Z,0.54
2023-03-04T10:35:02.630Z,0.55
2023-03-04T10:37:51.143Z,0.56
2023-03-04T10:40:26.761Z,0.52
2023-03-04T10:43:01.597Z,0.50
2023-03-04T10:45:37.002Z,0.51
2023-03-04T10:48:19.558Z,0.54
2023-03-04T10:50:52.130Z,0.54
2023-03-04T10:53:35.288Z,0.61
2023-03-04T10:56:30.226Z,0.61
2023-03-04T10:59:42.935Z,0.60
2023-03-04T11:02:25.207Z,0.61
2023-03-04T11:05:06.797Z,0.60
2023-03-04T11:07:55.001Z,0.70
2023-03-04T11:10:31.891Z,0.72
2023-03-04T11:13:14.508Z,0.81
2023-03-04T11:15:58.433Z,0.89
2023-03-04T11:18:34.191Z,0.94
2023-03-04T11:21:07.713Z,0.95
2023-03-04T11:23:48.911Z,0.94
2023-03-04T11:26:25.614Z,0.92
2023-03-04T11:29:07.503Z,0.93
2023-03-04T11:31:45.639Z,0.97
2023-03-04T11:34:29.594Z,0.88
2023-03-04T11:37:08.567Z,0.95
2023-03-04T11:39:43.195Z,0.95
2023-03-04T11:42:25.533Z,1.03
2023-03-04T11:44:59.451Z,1.04
2023-03-04T11:47:47.920Z,1.01
2023-03-04T11:50:31.148Z,1.01
2023-03-04T11:53:35.493Z,0.94
2023-03-04T11:56:26.794Z,1.00
2023-03-04T11:59:28.958Z,0.93
2023-03-04T12:02:17.546Z,0.93
2023-03-04T12:05:18.430Z,1.00
2023-03-04T12:08:10.463Z,1.03
2023-03-04T12:10:50.978Z,0.97
2023-03-04T12:13:43.322Z,0.94
2023-03-04T12:16:31.707Z,0.98
2023-03-04T12:19:24.797Z,0.96
2023-03-04T12:22:14.251Z,0.97
2023-03-04T12:25:32.441Z,0.93
2023-03-04T12:28:19.291Z,0.97
2023-03-04T12:31:04.259Z,0.96
2023-03-04T12:33:46.280Z,0.90
2023-03-04T12:36:29.687Z,0.88
2023-03-04T12:39:22.458Z,0.83
2023-03-04T12:42:07.940Z,0.78
2023-03-04T12:44:46.200Z,0.74
2023-03-04T12:47:33.348Z,0.77
2023-03-04T12:50:33.701Z,0.78
2023-03-04T12:53:19.246Z,0.71
2023-03-04T12:55:56.974Z,0.71
2023-03-04T12:58:31.400Z,0.72
2023-03-04T13:01:13.146Z,0.76
2023-03-04T13:03:55.454Z,0.82
2023-03-04T13:06:38.004Z,0.74
2023-03-04T13:09:16.669Z,0.72
2023-03-04T13:12:07.118Z,0.75
2023-03-04T13:14:39.688Z,0.77
2023-03-04T13:17:43.740Z,0.78
2023-03-04T13:20:25.205Z,0.82
2023-03-04T13:23:02.072Z,0.79
2023-03-04T13:25:44.485Z,0.74
2023-03-04T13:28:33.117Z,0.78
2023-03-04T13:31:24.605Z,0.81
2023-03-04T13:34:29.461Z,0.77
2023-03-04T13:37:03.525Z,0.77
2023-03-04T13:39:37.807Z,0.74
2023-03-04T13:42:36.827Z,0.80
2023-03-04T13:45:37.181Z,0.76
2023-03-04T13:48:25.504Z,0.76
2023-03-04T13:50:58.478Z,0.79
2023-03-04T13:53:50.283Z,0.87
2023-03-04T13:56:37.265Z,0.77
2023-03-04T13:59:28.860Z,0.83
2023-03-04T14:02:17.414Z,0.87
2023-03-04T14:04:58.565Z,0.92
2023-03-04T14:07:33.990Z,0.91
2023-03-04T14:10:10.301Z,0.92
2023-03-04T14:12:48.293Z,0.89
2023-03-04T14:15:26.474Z,0.84
2023-03-04T14:18:00.675Z,0.89
2023-03-04T14:20:35.255Z,0.89
2023-03-04T14:23:25.027Z,0.87
2023-03-04T14:26:07.752Z,0.88
2023-03-04T14:28:49.534Z,0.88
2023-03-04T14:31:27.932Z,0.91
2023-03-04T14:34:04.696Z,0.90
2023-03-04T14:36:57.446Z,0.86
2023-03-04T14:39:33.385Z,0.85
2023-03-04T14:42:11.583Z,0.81
2023-03-04T14:44:49.179Z,0.88
2023-03-04T14:47:26.781Z,0.89
2023-03-04T14:49:59.554Z,0.92
2023-03-04T14:52:39.046Z,0.91
2023-03-04T14:55:24.419Z,0.87
2023-03-04T14:58:08.462Z,0.91
2023-03-04T15:00:43.800Z,0.90
2023-03-04T15:03:25.089Z,0.94
2023-03-04T15:05:58.860Z,0.94
2023-03-04T15:08:36.001Z,0.93
2023-03-04T15:11:15.827Z,0.92
2023-03-04T15:13:51.249Z,0.97
2023-03-04T15:16:26.156Z,0.99
2023-03-04T15:19:01.360Z,1.06
2023-03-04T15:21:37.570Z,1.02
2023-03-04T15:24:13.896Z,1.04
2023-03-04T15:26:50.621Z,1.12
2023-03-04T15:29:24.240Z,1.07
2023-03-04T15:31:59.202Z,1.05
2023-03-04T15:34:32.466Z,1.02
2023-03-04T15:37:07.885Z,1.07
2023-03-04T15:39:41.148Z,1.09
2023-03-04T15:42:16.397Z,1.13
2023-03-04T15:44:49.736Z,1.09
2023-03-04T15:47:22.948Z,1.02
2023-03-04T15:49:56.365Z,1.06
2023-03-04T15:52:29.136Z,1.11
2023-03-04T15:55:02.564Z,1.10
2023-03-04T15:57:37.505Z,1.13
2023-03-04T16:00:13.495Z,1.13
2023-03-04T16:02:47.039Z,1.15
2023-03-04T16:05:24.973Z,1.13
2023-03-04T16:07:59.185Z,1.19
2023-03-04T16:10:32.434Z,1.20
2023-03-04T16:13:05.701Z,1.20
2023-03-04T16:15:38.707Z,1.19
2023-03-04T16:18:12.046Z,1.16
2023-03-04T16:20:50.296Z,1.20
2023-03-04T16:23:26.009Z,1.23
2023-03-04T16:26:00.084Z,1.21
2023-03-04T16:28:33.224Z,1.19
2023-03-04T16:31:06.235Z,1.18
2023-03-04T16:33:40.457Z,1.15
2023-03-04T16:36:21.642Z,1.14
2023-03-04T16:38:59.644Z,1.10
2023-03-04T16:41:39.657Z,1.11
2023-03-04T16:44:20.528Z,1.08
2023-03-04T16:46:57.497Z,1.09
2023-03-04T16:49:35.737Z,1.11
2023-03-04T16:52:25.636Z,1.11
2023-03-04T16:55:01.165Z,1.08
2023-03-04T16:57:34.001Z,1.09
2023-03-04T17:00:09.276Z,1.08
2023-03-04T17:02:42.144Z,1.09
2023-03-04T17:05:20.234Z,1.08
2023-03-04T17:07:55.697Z,1.08
2023-03-04T17:10:28.683Z,1.08
2023-03-04T17:13:01.233Z,1.08
2023-03-04T17:15:34.283Z,1.05
2023-03-04T17:18:12.452Z,1.06
2023-03-04T17:20:46.183Z,1.05
2023-03-04T17:23:22.043Z,1.09
2023-03-04T17:26:03.046Z,1.06
2023-03-04T17:28:36.173Z,1.04
2023-03-04T17:31:14.570Z,1.04
2023-03-04T17:33:47.803Z,1.09
2023-03-04T17:36:22.218Z,1.11
2023-03-04T17:38:55.156Z,1.11
2023-03-04T17:41:27.857Z,1.14
2023-03-04T17:44:02.007Z,1.13
2023-03-04T17:46:36.213Z,1.13
2023-03-04T17:49:09.312Z,1.15
2023-03-04T17:51:56.403Z,1.11
2023-03-04T17:54:33.760Z,1.17
2023-03-04T17:57:12.674Z,1.16
2023-03-04T17:59:49.577Z,1.16
2023-03-04T18:02:26.878Z,1.19
2023-03-04T18:05:06.262Z,1.18
2023-03-04T18:07:39.688Z,1.19
2023-03-04T18:10:20.564Z,1.23
2023-03-04T18:13:02.302Z,1.26
2023-03-04T18:15:38.062Z,1.28
2023-03-04T18:18:11.437Z,1.28
2023-03-04T18:20:44.440Z,1.32
2023-03-04T18:23:20.325Z,1.32
2023-03-04T18:25:52.904Z,1.33
2023-03-04T18:28:26.337Z,1.36
2023-03-04T18:30:59.773Z,1.35
2023-03-04T18:33:34.291Z,1.40
2023-03-04T18:36:12.771Z,1.43
2023-03-04T18:38:46.129Z,1.42
2023-03-04T18:41:20.503Z,1.47
2023-03-04T18:43:54.381Z,1.52
2023-03-04T18:46:36.666Z,1.47
2023-03-04T18:49:12.480Z,1.42
2023-03-04T18:51:45.152Z,1.41
2023-03-04T18:54:23.870Z,1.41
2023-03-04T18:57:00.637Z,1.47
2023-03-04T18:59:37.579Z,1.48
2023-03-04T19:02:17.602Z,1.48
2023-03-04T19:04:51.216Z,1.41
2023-03-04T19:07:25.374Z,1.40
2023-03-04T19:10:05.528Z,1.34
2023-03-04T19:12:50.152Z,1.34
2023-03-04T19:15:31.818Z,1.31
2023-03-04T19:18:14.466Z,1.24
2023-03-04T19:20:52.308Z,1.19
2023-03-04T19:23:31.918Z,1.20
2023-03-04T19:26:09.055Z,1.22
2023-03-04T19:28:46.657Z,1.17
2023-03-04T19:31:25.971Z,1.17
2023-03-04T19:34:04.614Z,1.18
2023-03-04T19:36:44.460Z,1.20
2023-03-04T19:39:23.144Z,1.20
2023-03-04T19:42:00.350Z,1.22
2023-03-04T19:44:37.974Z,1.23
2023-03-04T19:47:12.336Z,1.27
2023-03-04T19:49:50.281Z,1.28
2023-03-04T19:52:24.143Z,1.28
2023-03-04T19:54:57.232Z,1.28
2023-03-04T19:57:29.959Z,1.32
2023-03-04T20:00:05.272Z,1.31
2023-03-04T20:02:38.317Z,1.30
2023-03-04T20:05:12.851Z,1.32
2023-03-04T20:07:45.973Z,1.32
2023-03-04T20:10:19.252Z,1.32
2023-03-04T20:12:54.140Z,1.30
2023-03-04T20:15:26.837Z,1.30
2023-03-04T20:17:59.709Z,1.32
2023-03-04T20:20:32.734Z,1.33
2023-03-04T20:23:06.076Z,1.33
2023-03-04T20:25:40.013Z,1.33
2023-03-04T20:28:13.175Z,1.34
2023-03-04T20:30:46.012Z,1.33
2023-03-04T20:33:19.403Z,1.33
2023-03-04T20:35:52.360Z,1.33
2023-03-04T20:38:25.362Z,1.32
2023-03-04T20:40:58.495Z,1.32
2023-03-04T20:43:31.918Z,1.30
2023-03-04T20:46:34.954Z,1.26
2023-03-04T20:49:09.892Z,1.29
2023-03-04T20:51:42.642Z,1.30
2023-03-04T20:54:16.232Z,1.32
2023-03-04T20:56:51.112Z,1.30
2023-03-04T20:59:24.085Z,1.33
2023-03-04T21:01:57.349Z,1.34
2023-03-04T21:04:32.514Z,1.30
2023-03-04T21:07:06.304Z,1.23
2023-03-04T21:09:39.193Z,1.30
2023-03-04T21:12:12.570Z,1.30
2023-03-04T21:14:46.069Z,1.30
2023-03-04T21:17:19.079Z,1.30
2023-03-04T21:19:51.797Z,1.27
2023-03-04T21:22:24.894Z,1.26
2023-03-04T21:24:57.736Z,1.28
2023-03-04T21:27:30.527Z,1.26
2023-03-04T21:30:04.209Z,1.24
2023-03-04T21:32:37.489Z,1.26
2023-03-04T21:35:14.890Z,1.27
2023-03-04T21:37:47.778Z,1.24
2023-03-04T21:40:21.172Z,1.22
2023-03-04T21:42:54.000Z,1.22
2023-03-04T21:45:26.793Z,1.20
2023-03-04T21:47:59.344Z,1.20
2023-03-04T21:50:32.279Z,1.15
2023-03-04T21:53:05.850Z,1.15
2023-03-04T21:55:42.652Z,1.15
2023-03-04T21:58:15.384Z,1.12
2023-03-04T22:00:50.141Z,1.14
2023-03-04T22:03:23.126Z,1.13
2023-03-04T22:05:59.807Z,1.11
2023-03-04T22:08:32.526Z,1.09
2023-03-04T22:11:09.988Z,1.10
2023-03-04T22:13:42.662Z,1.09
2023-03-04T22:16:15.735Z,1.08
2023-03-04T22:18:48.797Z,1.05
2023-03-04T22:21:23.587Z,1.06
2023-03-04T22:23:56.543Z,1.05
2023-03-04T22:26:32.970Z,1.04
2023-03-04T22:29:06.595Z,1.03
2023-03-04T22:31:40.063Z,1.04
2023-03-04T22:34:14.676Z,1.02
2023-03-04T22:36:49.659Z,1.01
2023-03-04T22:39:23.480Z,0.96
2023-03-04T22:41:56.088Z,0.94
2023-03-04T22:44:30.083Z,0.89
2023-03-04T22:47:02.747Z,0.90
2023-03-04T22:49:35.250Z,0.90
2023-03-04T22:52:08.119Z,0.90
2023-03-04T22:54:40.593Z,0.88
2023-03-04T22:57:13.424Z,0.87
2023-03-04T22:59:45.983Z,0.87
2023-03-04T23:02:18.771Z,0.83
2023-03-04T23:04:51.321Z,0.85
2023-03-04T23:07:24.215Z,0.80
2023-03-04T23:09:56.664Z,0.77
2023-03-04T23:12:29.530Z,0.73
2023-03-04T23:15:02.362Z,0.68
2023-03-04T23:17:35.707Z,0.63
2023-03-04T23:20:10.511Z,0.59
2023-03-04T23:22:44.523Z,0.57
2023-03-04T23:25:19.039Z,0.56
2023-03-04T23:27:53.277Z,0.57
2023-03-04T23:30:25.882Z,0.57
2023-03-04T23:32:58.719Z,0.51
2023-03-04T23:35:31.430Z,0.50
2023-03-04T23:38:04.422Z,0.44
2023-03-04T23:40:37.128Z,0.42
2023-03-04T23:43:09.928Z,0.41
2023-03-04T23:45:42.588Z,0.43
2023-03-04T23:48:15.334Z,0.46
2023-03-04T23:50:54.519Z,0.47
2023-03-04T23:53:27.685Z,0.49
2023-03-04T23:56:00.217Z,0.49
2023-03-04T23:58:33.224Z,0.50
